Pride Of Burgundy — MQSQ9 — position and weather

sailwx.info

Track history (hours):
 
Tides and Currents Weather Stations Pressure Air Temp Water Temp Dewpoint Dewpoint Depression Visibility Wind Speed Wind Dir Waves Ship Positions

Pride Of Burgundy

Operator: P & O Ferries

Last reported at 2017-Apr-30 14:30 UTC. Time now 2017-Apr-30 14:49 UTC.
Position N 50°59' E 001°43'.

Length 180 m; draft 6.2 m.

Type: Passenger vessel. MMSI: 232001470.

Date/timePositionNaut miles runAvg speedWind from/ knotsBaromVisibWave heightAir tempDewpointWater temp
2017-Apr-30 14:30N 50°59' E 001°43'1716.7
2017-Apr-30 13:31N 51°07' E 001°20'0 0.0
2017-Apr-30 12:59N 51°07' E 001°20'3 6.3
2017-Apr-30 12:31N 51°06' E 001°25'1020.4
2017-Apr-30 12:01N 51°01' E 001°38'816.7
2017-Apr-30 11:31N 50°58' E 001°51'0 0.4
2017-Apr-30 11:00N 50°58' E 001°51'0 0.0
2017-Apr-30 10:30N 50°58' E 001°51'510.9
2017-Apr-30 10:01N 50°58' E 001°42'1019.1
2017-Apr-30 09:31N 51°04' E 001°30'714.3
2017-Apr-30 09:00N 51°07' E 001°20'0 0.0
2017-Apr-30 08:30N 51°07' E 001°20'1 1.4
2017-Apr-30 08:01N 51°07' E 001°21'917.6
2017-Apr-30 07:31N 51°04' E 001°34'918.0
2017-Apr-30 07:00N 50°58' E 001°45'4 7.2
2017-Apr-30 06:30N 50°58' E 001°51'0 0.0
2017-Apr-30 06:00N 50°58' E 001°51'0 0.0
2017-Apr-30 05:30N 50°58' E 001°51'0 0.0
2017-Apr-30 05:00N 50°58' E 001°51'0 0.0
2017-Apr-30 04:30N 50°58' E 001°51'0 0.0
2017-Apr-30 04:00N 50°58' E 001°51'0 0.0
2017-Apr-30 03:30N 50°58' E 001°51'0 0.0
2017-Apr-30 03:00N 50°58' E 001°51'0 0.0
2017-Apr-30 02:30N 50°58' E 001°51'0 0.0
2017-Apr-30 02:00N 50°58' E 001°51'0 0.0
2017-Apr-30 01:30N 50°58' E 001°51'0 0.0
2017-Apr-30 01:00N 50°58' E 001°51'0 0.0
2017-Apr-30 00:30N 50°58' E 001°51'0 0.0
2017-Apr-30 00:00N 50°58' E 001°51'0 0.0
2017-Apr-29 23:30N 50°58' E 001°51'0 0.0
2017-Apr-29 23:01N 50°58' E 001°51'0 0.0
2017-Apr-29 22:30N 50°58' E 001°51'0 0.0
2017-Apr-29 22:00N 50°58' E 001°51'0 0.0
2017-Apr-29 21:30N 50°58' E 001°51'0 0.0
2017-Apr-29 21:00N 50°58' E 001°51'0 0.0
2017-Apr-29 20:30N 50°58' E 001°51'0 0.0
2017-Apr-29 20:00N 50°58' E 001°51'0 0.0
2017-Apr-29 19:30N 50°58' E 001°51'714.4
2017-Apr-29 19:01N 50°58' E 001°40'1019.7
2017-Apr-29 18:30N 51°04' E 001°26'510.7
2017-Apr-29 18:00N 51°07' E 001°20'0 0.0
2017-Apr-29 17:30N 51°07' E 001°20'510.8
2017-Apr-29 17:00N 51°06' E 001°28'1019.8
2017-Apr-29 16:30N 51°00' E 001°41'713.5
2017-Apr-29 16:00N 50°58' E 001°51'0 0.0
2017-Apr-29 15:30N 50°58' E 001°51'0 0.4
2017-Apr-29 15:00N 50°58' E 001°51'1019.5
2017-Apr-29 14:30N 50°58' E 001°35'1312.5
2017-Apr-29 13:27N 51°07' E 001°20'0 0.0
2017-Apr-29 13:00N 51°07' E 001°20'4 8.6
2017-Apr-29 12:30N 51°07' E 001°27'1019.5
2017-Apr-29 12:00N 51°01' E 001°39'815.6
2017-Apr-29 11:30N 50°58' E 001°51'0 0.4
2017-Apr-29 11:00N 50°58' E 001°51'1 1.3
2017-Apr-29 10:30N 50°58' E 001°50'817.0
2017-Apr-29 10:01N 51°00' E 001°37'918.5
2017-Apr-29 09:31N 51°06' E 001°25'4 7.3
2017-Apr-29 09:00N 51°07' E 001°20'0 0.0
2017-Apr-29 08:30N 51°07' E 001°20'0 0.7
2017-Apr-29 08:00N 51°07' E 001°21'917.3
2017-Apr-29 07:31N 51°04' E 001°33'917.6
2017-Apr-29 07:00N 50°59' E 001°44'4 8.6
2017-Apr-29 06:30N 50°58' E 001°51'0 0.0
2017-Apr-29 06:00N 50°58' E 001°51'2 4.7
2017-Apr-29 05:31N 50°58' E 001°47'918.5
2017-Apr-29 05:00N 51°01' E 001°33'1019.7
2017-Apr-29 04:30N 51°07' E 001°21'0 0.8
2017-Apr-29 04:00N 51°07' E 001°20'0 0.0
2017-Apr-29 03:30N 51°07' E 001°20'0 0.6
2017-Apr-29 03:00N 51°07' E 001°21'817.1
2017-Apr-29 02:30N 51°07' E 001°34'815.9
2017-Apr-29 02:00N 51°00' E 001°41'713.0
2017-Apr-29 01:30N 50°58' E 001°51'0 0.2
2017-Apr-29 01:01N 50°58' E 001°51'0 0.0
2017-Apr-29 00:30N 50°58' E 001°51'0 0.0
2017-Apr-29 00:01N 50°58' E 001°51'0 0.0
2017-Apr-28 23:31N 50°58' E 001°51'0 0.0
2017-Apr-28 23:00N 50°58' E 001°51'0 0.0
2017-Apr-28 22:30N 50°58' E 001°51'0 0.0
2017-Apr-28 22:00N 50°58' E 001°51'0 0.0
2017-Apr-28 21:30N 50°58' E 001°51'0 0.0
2017-Apr-28 21:01N 50°58' E 001°51'0 0.0
2017-Apr-28 20:30N 50°58' E 001°51'0 0.0
2017-Apr-28 20:00N 50°58' E 001°51'0 0.7
2017-Apr-28 19:31N 50°58' E 001°51'816.1
2017-Apr-28 19:01N 50°59' E 001°38'1019.2
2017-Apr-28 18:31N 51°05' E 001°26'4 8.1
2017-Apr-28 18:00N 51°07' E 001°20'0 0.0
2017-Apr-28 17:30N 51°07' E 001°20'3 6.9
2017-Apr-28 17:00N 51°06' E 001°25'918.2
2017-Apr-28 16:31N 51°01' E 001°37'917.0
2017-Apr-28 16:01N 50°58' E 001°50'1 1.4
2017-Apr-28 15:30N 50°58' E 001°51'0 0.0
2017-Apr-28 15:00N 50°58' E 001°51'1616.1
2017-Apr-28 14:00N 51°04' E 001°27'611.1
2017-Apr-28 13:30N 51°07' E 001°20'0 0.0
2017-Apr-28 13:00N 51°07' E 001°20'4 7.3
2017-Apr-28 12:31N 51°07' E 001°26'918.4
2017-Apr-28 12:01N 51°01' E 001°37'816.3
2017-Apr-28 11:31N 50°58' E 001°50'1 1.9
2017-Apr-28 11:00N 50°58' E 001°51'0 0.0
2017-Apr-28 10:30N 50°58' E 001°51'612.6
2017-Apr-28 10:01N 50°58' E 001°41'1019.7
2017-Apr-28 09:30N 51°04' E 001°29'612.2
2017-Apr-28 09:00N 51°07' E 001°20'0 0.0
2017-Apr-28 08:30N 51°07' E 001°20'0 0.6
2017-Apr-28 08:00N 51°07' E 001°20'816.0
2017-Apr-28 07:31N 51°04' E 001°32'917.4
2017-Apr-28 07:01N 50°59' E 001°43'5 9.9
2017-Apr-28 06:30N 50°58' E 001°51'0 0.0
2017-Apr-28 06:00N 50°58' E 001°51'2 3.1
2017-Apr-28 05:31N 50°58' E 001°49'918.0
2017-Apr-28 05:00N 51°01' E 001°35'1020.2
2017-Apr-28 04:30N 51°07' E 001°22'1 2.3
2017-Apr-28 04:00N 51°07' E 001°20'0 0.0
2017-Apr-28 03:31N 51°07' E 001°20'0 0.1
2017-Apr-28 02:59N 51°07' E 001°20'613.1
2017-Apr-28 02:30N 51°05' E 001°29'917.3
2017-Apr-28 02:00N 51°00' E 001°41'713.1
2017-Apr-28 01:30N 50°58' E 001°51'0 0.4
2017-Apr-28 01:00N 50°58' E 001°51'0 0.0
2017-Apr-28 00:30N 50°58' E 001°51'0 0.0
2017-Apr-28 00:00N 50°58' E 001°51'0 0.0
2017-Apr-27 23:30N 50°58' E 001°51'0 0.0
2017-Apr-27 23:00N 50°58' E 001°51'0 0.0
2017-Apr-27 22:30N 50°58' E 001°51'0 0.0
2017-Apr-27 22:00N 50°58' E 001°51'0 0.0
2017-Apr-27 21:30N 50°58' E 001°51'0 0.0
2017-Apr-27 21:00N 50°58' E 001°51'0 0.0
2017-Apr-27 20:30N 50°58' E 001°51'0 0.0
2017-Apr-27 20:00N 50°58' E 001°51'1 1.6
2017-Apr-27 19:31N 50°58' E 001°50'816.7
2017-Apr-27 19:01N 50°59' E 001°37'1019.7
2017-Apr-27 18:31N 51°05' E 001°24'3 6.8
2017-Apr-27 18:00N 51°07' E 001°20'0 0.0
2017-Apr-27 17:30N 51°07' E 001°20'611.3
2017-Apr-27 17:00N 51°05' E 001°28'918.0
2017-Apr-27 16:30N 51°00' E 001°40'714.0
2017-Apr-27 16:00N 50°58' E 001°51'0 0.0
2017-Apr-27 15:30N 50°58' E 001°51'3 6.1
2017-Apr-27 15:01N 50°58' E 001°46'1918.7
2017-Apr-27 14:01N 51°07' E 001°20'1 1.4
2017-Apr-27 13:30N 51°07' E 001°20'0 0.2
2017-Apr-27 13:00N 51°07' E 001°20'612.6
2017-Apr-27 12:30N 51°05' E 001°29'917.1
2017-Apr-27 12:00N 51°00' E 001°41'714.0
2017-Apr-27 11:30N 50°58' E 001°51'0 0.6
2017-Apr-27 11:00N 50°58' E 001°52'0 0.0
2017-Apr-27 10:30N 50°58' E 001°52'713.5
2017-Apr-27 10:00N 50°59' E 001°41'917.8
2017-Apr-27 09:31N 51°03' E 001°29'713.9
2017-Apr-27 09:00N 51°07' E 001°20'0 0.0
2017-Apr-27 08:31N 51°07' E 001°20'0 0.3
2017-Apr-27 08:00N 51°07' E 001°20'815.3
2017-Apr-27 07:30N 51°04' E 001°31'918.0
2017-Apr-27 07:00N 50°59' E 001°43'510.3
2017-Apr-27 06:30N 50°58' E 001°51'0 0.0
2017-Apr-27 06:00N 50°58' E 001°51'1 2.4
2017-Apr-27 05:31N 50°58' E 001°49'917.6
2017-Apr-27 05:01N 50°60' E 001°35'1019.9
2017-Apr-27 04:30N 51°06' E 001°23'2 4.7
2017-Apr-27 04:00N 51°07' E 001°20'0 0.0
2017-Apr-27 03:30N 51°07' E 001°20'4 8.7
2017-Apr-27 03:00N 51°06' E 001°27'1019.3
2017-Apr-27 02:30N 51°00' E 001°39'815.6
2017-Apr-27 02:01N 50°58' E 001°51'0 0.3
2017-Apr-27 01:30N 50°58' E 001°51'0 0.0
2017-Apr-27 01:00N 50°58' E 001°51'0 0.0
2017-Apr-27 00:30N 50°58' E 001°51'0 0.0
2017-Apr-27 00:00N 50°58' E 001°51'0 0.0
2017-Apr-26 23:30N 50°58' E 001°51'0 0.0
2017-Apr-26 23:00N 50°58' E 001°51'0 0.0
2017-Apr-26 22:30N 50°58' E 001°51'0 0.0
2017-Apr-26 22:00N 50°58' E 001°51'0 0.0
2017-Apr-26 21:30N 50°58' E 001°51'0 0.0
2017-Apr-26 21:00N 50°58' E 001°51'0 0.0
2017-Apr-26 20:30N 50°58' E 001°51'0 0.0
2017-Apr-26 20:00N 50°58' E 001°51'0 0.6
2017-Apr-26 19:30N 50°58' E 001°51'815.5
2017-Apr-26 19:01N 50°59' E 001°39'1019.2
2017-Apr-26 18:31N 51°05' E 001°27'5 9.5
2017-Apr-26 18:00N 51°07' E 001°20'0 0.0
2017-Apr-26 17:30N 51°07' E 001°20'5 9.8
2017-Apr-26 17:01N 51°05' E 001°27'917.6
2017-Apr-26 16:30N 51°00' E 001°38'815.9
2017-Apr-26 16:00N 50°58' E 001°51'0 0.4
2017-Apr-26 15:30N 50°58' E 001°51'0 0.0
2017-Apr-26 15:00N 50°58' E 001°51'612.7
2017-Apr-26 14:30N 50°59' E 001°41'1614.8
2017-Apr-26 13:27N 51°07' E 001°20'0 0.0
2017-Apr-26 12:59N 51°07' E 001°20'3 5.3
2017-Apr-26 12:30N 51°07' E 001°24'918.5
2017-Apr-26 12:00N 51°02' E 001°37'816.8
2017-Apr-26 11:30N 50°58' E 001°49'1 3.0
2017-Apr-26 11:00N 50°58' E 001°51'0 0.0
2017-Apr-26 10:30N 50°58' E 001°51'612.1
2017-Apr-26 10:00N 50°58' E 001°41'1020.4
2017-Apr-26 09:30N 51°04' E 001°28'611.7
2017-Apr-26 09:00N 51°07' E 001°20'0 0.0
2017-Apr-26 08:30N 51°07' E 001°20'2 3.3
2017-Apr-26 08:01N 51°07' E 001°23'1019.2
2017-Apr-26 07:31N 51°02' E 001°36'918.8
2017-Apr-26 07:01N 50°58' E 001°49'1 2.0
2017-Apr-26 06:30N 50°58' E 001°51'0 0.0
2017-Apr-26 06:00N 50°58' E 001°51'3 5.7
2017-Apr-26 05:30N 50°58' E 001°46'917.5
2017-Apr-26 05:01N 51°00' E 001°33'1019.5
2017-Apr-26 04:30N 51°07' E 001°22'1 2.1
2017-Apr-26 04:01N 51°07' E 001°20'0 0.0
2017-Apr-26 03:30N 51°07' E 001°20'0 0.2
2017-Apr-26 03:01N 51°07' E 001°20'714.7
2017-Apr-26 02:31N 51°06' E 001°32'917.7
2017-Apr-26 02:00N 50°60' E 001°42'612.8
2017-Apr-26 01:30N 50°58' E 001°52'0 0.1
2017-Apr-26 01:00N 50°58' E 001°52'0 0.0
2017-Apr-26 00:30N 50°58' E 001°52'0 0.0
2017-Apr-26 00:00N 50°58' E 001°52'0 0.0
2017-Apr-25 23:29N 50°58' E 001°52'0 0.0
2017-Apr-25 23:00N 50°58' E 001°52'0 0.0
2017-Apr-25 22:30N 50°58' E 001°52'0 0.0
2017-Apr-25 22:00N 50°58' E 001°52'0 0.0
2017-Apr-25 21:30N 50°58' E 001°52'0 0.0
2017-Apr-25 21:00N 50°58' E 001°52'0 0.0
2017-Apr-25 20:30N 50°58' E 001°52'0 0.0
2017-Apr-25 20:01N 50°58' E 001°52'2 4.4
2017-Apr-25 19:30N 50°58' E 001°48'917.2
2017-Apr-25 19:01N 51°00' E 001°35'1019.4
2017-Apr-25 18:31N 51°06' E 001°23'2 4.4
2017-Apr-25 18:00N 51°07' E 001°20'0 0.0
2017-Apr-25 17:30N 51°07' E 001°20'613.0
2017-Apr-25 17:00N 51°05' E 001°29'1019.2
2017-Apr-25 16:30N 50°60' E 001°42'612.7
2017-Apr-25 16:00N 50°58' E 001°52'0 0.0
2017-Apr-25 15:30N 50°58' E 001°52'2 4.8
2017-Apr-25 15:01N 50°58' E 001°48'918.4
2017-Apr-25 14:31N 51°02' E 001°34'1110.6
2017-Apr-25 13:30N 51°07' E 001°20'0 0.0
2017-Apr-25 12:59N 51°07' E 001°20'613.5
2017-Apr-25 12:31N 51°05' E 001°30'918.9
2017-Apr-25 12:01N 50°60' E 001°42'611.6
2017-Apr-25 11:30N 50°58' E 001°51'0 0.0
2017-Apr-25 11:00N 50°58' E 001°51'0 0.3
2017-Apr-25 10:30N 50°58' E 001°51'918.4
2017-Apr-25 10:00N 51°00' E 001°37'1020.1
2017-Apr-25 09:30N 51°06' E 001°23'3 5.1
2017-Apr-25 09:00N 51°07' E 001°20'0 0.0
2017-Apr-25 08:30N 51°07' E 001°20'1 1.9
2017-Apr-25 08:00N 51°07' E 001°22'918.0
2017-Apr-25 07:30N 51°03' E 001°34'1019.1
2017-Apr-25 07:00N 50°58' E 001°47'3 5.5
2017-Apr-25 06:30N 50°58' E 001°52'0 0.0
2017-Apr-25 06:00N 50°58' E 001°52'2 4.9
2017-Apr-25 05:31N 50°58' E 001°48'917.7
2017-Apr-25 05:00N 51°01' E 001°34'918.5
2017-Apr-25 04:30N 51°06' E 001°23'2 3.6
2017-Apr-25 04:00N 51°07' E 001°20'0 0.0
2017-Apr-25 03:30N 51°07' E 001°20'0 0.2
2017-Apr-25 03:00N 51°07' E 001°20'815.5
2017-Apr-25 02:30N 51°05' E 001°32'918.6
2017-Apr-25 02:01N 50°59' E 001°43'510.6
2017-Apr-25 01:31N 50°58' E 001°52'0 0.0
2017-Apr-25 01:01N 50°58' E 001°52'0 0.0
2017-Apr-25 00:30N 50°58' E 001°52'0 0.0
2017-Apr-25 00:00N 50°58' E 001°52'0 0.0
2017-Apr-24 23:30N 50°58' E 001°52'0 0.0
2017-Apr-24 23:01N 50°58' E 001°52'0 0.0
2017-Apr-24 22:30N 50°58' E 001°52'0 0.0
2017-Apr-24 22:01N 50°58' E 001°52'0 0.0
2017-Apr-24 21:30N 50°58' E 001°52'0 0.0
2017-Apr-24 21:01N 50°58' E 001°52'0 0.0
2017-Apr-24 20:30N 50°58' E 001°52'0 0.0
2017-Apr-24 20:00N 50°58' E 001°52'1 1.5
2017-Apr-24 19:31N 50°58' E 001°51'918.0
2017-Apr-24 19:00N 50°59' E 001°36'1019.8
2017-Apr-24 18:30N 51°06' E 001°25'3 6.7
2017-Apr-24 18:00N 51°07' E 001°20'0 0.0
2017-Apr-24 17:30N 51°07' E 001°20'611.1
2017-Apr-24 17:00N 51°05' E 001°28'1020.1
2017-Apr-24 16:30N 50°60' E 001°41'612.4
2017-Apr-24 16:00N 50°58' E 001°51'0 0.0
2017-Apr-24 15:30N 50°58' E 001°51'2 3.9
2017-Apr-24 15:00N 50°58' E 001°48'917.6
2017-Apr-24 14:31N 50°60' E 001°34'1211.5
2017-Apr-24 13:30N 51°07' E 001°20'0 0.1
2017-Apr-24 13:00N 51°07' E 001°20'714.2
2017-Apr-24 12:30N 51°05' E 001°30'1019.2
2017-Apr-24 12:00N 50°59' E 001°43'510.4
2017-Apr-24 11:30N 50°58' E 001°51'0 0.0
2017-Apr-24 11:00N 50°58' E 001°51'0 0.0
2017-Apr-24 10:30N 50°58' E 001°51'816.8
2017-Apr-24 10:00N 50°58' E 001°38'1020.6
2017-Apr-24 09:30N 51°04' E 001°24'4 8.2
2017-Apr-24 09:00N 51°07' E 001°20'0 0.0
2017-Apr-24 08:30N 51°07' E 001°20'3 5.2
2017-Apr-24 08:01N 51°07' E 001°24'918.0
2017-Apr-24 07:30N 51°02' E 001°36'918.0
2017-Apr-24 07:00N 50°58' E 001°49'2 3.3
2017-Apr-24 06:30N 50°58' E 001°52'0 0.0
2017-Apr-24 06:00N 50°58' E 001°52'0 0.0
2017-Apr-24 05:30N 50°58' E 001°52'0 0.0
2017-Apr-24 05:00N 50°58' E 001°52'0 0.0
2017-Apr-24 04:30N 50°58' E 001°52'0 0.0
2017-Apr-24 04:00N 50°58' E 001°52'0 0.0
2017-Apr-24 03:30N 50°58' E 001°52'0 0.0
2017-Apr-24 03:00N 50°58' E 001°52'0 0.0
2017-Apr-24 02:30N 50°58' E 001°52'0 0.0
2017-Apr-24 02:00N 50°58' E 001°52'0 0.0
2017-Apr-24 01:30N 50°58' E 001°52'0 0.0
2017-Apr-24 01:00N 50°58' E 001°52'0 0.0
2017-Apr-24 00:30N 50°58' E 001°52'0 0.0
2017-Apr-24 00:00N 50°58' E 001°52'0 0.0
2017-Apr-23 23:30N 50°58' E 001°52'0 0.0
2017-Apr-23 23:00N 50°58' E 001°52'0 0.0
2017-Apr-23 22:30N 50°58' E 001°52'0 0.0
2017-Apr-23 22:00N 50°58' E 001°52'0 0.0
2017-Apr-23 21:30N 50°58' E 001°52'0 0.0
2017-Apr-23 21:00N 50°58' E 001°52'0 0.0
2017-Apr-23 20:30N 50°58' E 001°52'0 0.0
2017-Apr-23 20:00N 50°58' E 001°52'0 0.0
2017-Apr-23 19:30N 50°58' E 001°52'611.7
2017-Apr-23 19:00N 50°58' E 001°42'1019.9
2017-Apr-23 18:30N 51°03' E 001°29'713.6
2017-Apr-23 18:00N 51°07' E 001°20'0 0.0
2017-Apr-23 17:30N 51°07' E 001°20'4 7.1
2017-Apr-23 17:01N 51°06' E 001°26'1020.3
2017-Apr-23 16:31N 51°01' E 001°39'815.7
2017-Apr-23 16:01N 50°58' E 001°51'0 0.3
2017-Apr-23 15:30N 50°58' E 001°51'0 0.6
2017-Apr-23 15:00N 50°58' E 001°51'1515.2
2017-Apr-23 14:00N 51°04' E 001°28'612.4
2017-Apr-23 13:30N 51°07' E 001°20'0 0.0
2017-Apr-23 13:00N 51°07' E 001°20'1 2.1
2017-Apr-23 12:31N 51°07' E 001°22'1019.6
2017-Apr-23 12:01N 51°02' E 001°35'917.6
2017-Apr-23 11:30N 50°58' E 001°48'2 4.3
2017-Apr-23 11:01N 50°58' E 001°51'0 0.0
2017-Apr-23 10:30N 50°58' E 001°51'611.5
2017-Apr-23 10:00N 50°59' E 001°42'1020.9
2017-Apr-23 09:31N 51°04' E 001°28'611.6
2017-Apr-23 09:00N 51°07' E 001°20'0 0.0
2017-Apr-23 08:30N 51°07' E 001°20'3 6.0
2017-Apr-23 08:00N 51°07' E 001°25'1019.7
2017-Apr-23 07:30N 51°01' E 001°38'817.0
2017-Apr-23 07:00N 50°58' E 001°51'0 0.8
2017-Apr-23 06:31N 50°58' E 001°51'3 5.4
2017-Apr-23 06:00N 50°58' E 001°47'919.0
2017-Apr-23 05:30N 51°01' E 001°33'1019.3
2017-Apr-23 05:00N 51°07' E 001°21'0 0.6
2017-Apr-23 04:30N 51°07' E 001°20'3 5.5
2017-Apr-23 04:00N 51°06' E 001°24'1019.8
2017-Apr-23 03:30N 51°01' E 001°38'917.5
2017-Apr-23 03:00N 50°58' E 001°51'0 0.6
2017-Apr-23 02:31N 50°58' E 001°51'1 1.3
2017-Apr-23 02:00N 50°58' E 001°50'918.0
2017-Apr-23 01:30N 50°59' E 001°36'1020.1
2017-Apr-23 01:00N 51°05' E 001°24'3 6.6
2017-Apr-23 00:30N 51°07' E 001°20'0 0.0
2017-Apr-23 00:00N 51°07' E 001°20'0 0.0
2017-Apr-22 23:30N 51°07' E 001°20'0 0.1
2017-Apr-22 23:00N 51°07' E 001°20'5 9.9
2017-Apr-22 22:31N 51°06' E 001°28'1019.8
2017-Apr-22 22:00N 51°00' E 001°40'714.0
2017-Apr-22 21:30N 50°58' E 001°51'0 0.0
2017-Apr-22 21:00N 50°58' E 001°51'1 2.3
2017-Apr-22 20:31N 50°58' E 001°49'817.0
2017-Apr-22 20:01N 50°58' E 001°36'1019.5
2017-Apr-22 19:31N 51°05' E 001°25'4 8.1
2017-Apr-22 19:00N 51°07' E 001°20'0 0.0
2017-Apr-22 18:30N 51°07' E 001°20'0 0.0
2017-Apr-22 18:00N 51°07' E 001°20'0 0.0
2017-Apr-22 17:31N 51°07' E 001°20'611.2
2017-Apr-22 17:01N 51°06' E 001°29'816.5
2017-Apr-22 16:31N 51°01' E 001°39'815.4
2017-Apr-22 16:00N 50°58' E 001°51'0 0.5
2017-Apr-22 15:30N 50°58' E 001°51'1 1.8
2017-Apr-22 15:01N 50°58' E 001°50'817.0
2017-Apr-22 14:31N 50°59' E 001°36'1312.9
2017-Apr-22 13:30N 51°07' E 001°20'0 0.0
2017-Apr-22 13:00N 51°07' E 001°20'4 7.1
2017-Apr-22 12:30N 51°06' E 001°25'1019.6
2017-Apr-22 12:00N 51°01' E 001°39'816.3
2017-Apr-22 11:31N 50°58' E 001°51'0 0.3
2017-Apr-22 11:00N 50°58' E 001°51'0 0.1
2017-Apr-22 10:30N 50°58' E 001°51'815.9
2017-Apr-22 10:01N 50°59' E 001°38'1019.8
2017-Apr-22 09:31N 51°05' E 001°26'5 9.2
2017-Apr-22 09:00N 51°07' E 001°20'0 0.0
2017-Apr-22 08:30N 51°07' E 001°20'0 0.2
2017-Apr-22 08:00N 51°07' E 001°20'816.6
2017-Apr-22 07:30N 51°04' E 001°32'1019.6
2017-Apr-22 07:00N 50°58' E 001°45'4 7.8
2017-Apr-22 06:30N 50°58' E 001°51'0 0.0
2017-Apr-22 06:00N 50°58' E 001°51'4 8.0
2017-Apr-22 05:31N 50°58' E 001°45'816.3
2017-Apr-22 05:00N 51°02' E 001°33'816.6
2017-Apr-22 04:30N 51°07' E 001°22'2 3.3
2017-Apr-22 04:00N 51°07' E 001°20'0 0.0
2017-Apr-22 03:30N 51°07' E 001°20'0 0.0
2017-Apr-22 03:00N 51°07' E 001°20'612.0
2017-Apr-22 02:30N 51°05' E 001°28'815.9
2017-Apr-22 02:00N 51°01' E 001°39'815.1
2017-Apr-22 01:31N 50°58' E 001°50'0 0.9
2017-Apr-22 01:01N 50°58' E 001°51'0 0.0
2017-Apr-22 00:31N 50°58' E 001°51'0 0.0
2017-Apr-22 00:01N 50°58' E 001°51'0 0.0
2017-Apr-21 23:30N 50°58' E 001°51'0 0.0
2017-Apr-21 23:01N 50°58' E 001°51'0 0.0
2017-Apr-21 22:30N 50°58' E 001°51'0 0.0
2017-Apr-21 22:00N 50°58' E 001°51'0 0.0
2017-Apr-21 21:31N 50°58' E 001°51'0 0.0
2017-Apr-21 21:00N 50°58' E 001°51'0 0.0
2017-Apr-21 20:31N 50°58' E 001°51'0 0.0
2017-Apr-21 20:00N 50°58' E 001°51'0 0.0
2017-Apr-21 19:31N 50°58' E 001°51'714.1
2017-Apr-21 19:01N 50°59' E 001°40'918.6
2017-Apr-21 18:31N 51°04' E 001°28'611.4
2017-Apr-21 18:00N 51°07' E 001°20'0 0.0
2017-Apr-21 17:30N 51°07' E 001°20'2 3.9
2017-Apr-21 17:00N 51°07' E 001°23'1020.0
2017-Apr-21 16:30N 51°02' E 001°37'918.4
2017-Apr-21 16:00N 50°58' E 001°50'1 1.1
2017-Apr-21 15:30N 50°58' E 001°51'1 1.6
2017-Apr-21 15:01N 50°58' E 001°50'917.7
2017-Apr-21 14:31N 51°00' E 001°36'1211.8
2017-Apr-21 13:28N 51°07' E 001°20'0 0.0
2017-Apr-21 12:58N 51°07' E 001°20'613.0
2017-Apr-21 12:30N 51°05' E 001°29'1019.8
2017-Apr-21 12:00N 50°59' E 001°42'611.9
2017-Apr-21 11:30N 50°58' E 001°51'0 0.0
2017-Apr-21 11:00N 50°58' E 001°51'3 6.4
2017-Apr-21 10:31N 50°58' E 001°46'1019.1
2017-Apr-21 10:01N 51°02' E 001°32'918.3
2017-Apr-21 09:30N 51°07' E 001°20'0 0.1
2017-Apr-21 09:00N 51°07' E 001°20'0 0.0
2017-Apr-21 08:30N 51°07' E 001°20'0 0.5
2017-Apr-21 07:59N 51°07' E 001°20'816.1
2017-Apr-21 07:31N 51°03' E 001°31'917.6
2017-Apr-21 07:00N 50°59' E 001°43'510.2
2017-Apr-21 06:30N 50°58' E 001°51'0 0.0
2017-Apr-21 06:01N 50°58' E 001°51'2 3.0
2017-Apr-21 05:30N 50°58' E 001°49'919.0
2017-Apr-21 05:00N 50°60' E 001°34'918.3
2017-Apr-21 04:30N 51°06' E 001°23'2 4.8
2017-Apr-21 04:00N 51°07' E 001°20'0 0.0
2017-Apr-21 03:31N 51°07' E 001°20'0 0.1
2017-Apr-21 03:01N 51°07' E 001°20'713.9
2017-Apr-21 02:30N 51°04' E 001°30'815.9
2017-Apr-21 02:00N 51°00' E 001°41'713.1
2017-Apr-21 01:30N 50°58' E 001°51'0 0.4
2017-Apr-21 01:00N 50°58' E 001°51'0 0.0
2017-Apr-21 00:30N 50°58' E 001°51'0 0.0
2017-Apr-21 00:00N 50°58' E 001°51'0 0.0
2017-Apr-20 23:30N 50°58' E 001°51'0 0.0
2017-Apr-20 23:01N 50°58' E 001°51'0 0.0
2017-Apr-20 22:30N 50°58' E 001°51'0 0.0
2017-Apr-20 22:00N 50°58' E 001°51'0 0.0
2017-Apr-20 21:30N 50°58' E 001°51'0 0.0
2017-Apr-20 21:00N 50°58' E 001°51'0 0.0
2017-Apr-20 20:30N 50°58' E 001°51'0 0.0
2017-Apr-20 20:00N 50°58' E 001°51'0 0.4
2017-Apr-20 19:30N 50°58' E 001°51'816.0
2017-Apr-20 19:00N 50°59' E 001°38'917.5
2017-Apr-20 18:30N 51°03' E 001°26'510.7
2017-Apr-20 18:00N 51°07' E 001°20'0 0.0
2017-Apr-20 17:30N 51°07' E 001°20'5 9.4
2017-Apr-20 17:00N 51°06' E 001°27'1019.5
2017-Apr-20 16:30N 51°00' E 001°40'714.5
2017-Apr-20 16:01N 50°58' E 001°51'0 0.2
2017-Apr-20 15:31N 50°58' E 001°51'0 0.0
2017-Apr-20 15:00N 50°58' E 001°51'  
Track history (hours):
 
Tides and Currents Weather Stations Pressure Air Temp Water Temp Dewpoint Dewpoint Depression Visibility Wind Speed Wind Dir Waves Ship Positions

Pride Of Burgundy

Operator: P & O Ferries

Last reported at 2017-Apr-30 14:30 UTC. Time now 2017-Apr-30 14:49 UTC.
Position N 50°59' E 001°43'.

Length 180 m; draft 6.2 m.

Type: Passenger vessel. MMSI: 232001470.

Date/timePositionNaut miles runAvg speedWind from/ knotsBaromVisibWave heightAir tempDewpointWater temp
2017-Apr-30 14:30N 50°59' E 001°43'1716.7
2017-Apr-30 13:31N 51°07' E 001°20'0 0.0
2017-Apr-30 12:59N 51°07' E 001°20'3 6.3
2017-Apr-30 12:31N 51°06' E 001°25'1020.4
2017-Apr-30 12:01N 51°01' E 001°38'816.7
2017-Apr-30 11:31N 50°58' E 001°51'0 0.4
2017-Apr-30 11:00N 50°58' E 001°51'0 0.0
2017-Apr-30 10:30N 50°58' E 001°51'510.9
2017-Apr-30 10:01N 50°58' E 001°42'1019.1
2017-Apr-30 09:31N 51°04' E 001°30'714.3
2017-Apr-30 09:00N 51°07' E 001°20'0 0.0
2017-Apr-30 08:30N 51°07' E 001°20'1 1.4
2017-Apr-30 08:01N 51°07' E 001°21'917.6
2017-Apr-30 07:31N 51°04' E 001°34'918.0
2017-Apr-30 07:00N 50°58' E 001°45'4 7.2
2017-Apr-30 06:30N 50°58' E 001°51'0 0.0
2017-Apr-30 06:00N 50°58' E 001°51'0 0.0
2017-Apr-30 05:30N 50°58' E 001°51'0 0.0
2017-Apr-30 05:00N 50°58' E 001°51'0 0.0
2017-Apr-30 04:30N 50°58' E 001°51'0 0.0
2017-Apr-30 04:00N 50°58' E 001°51'0 0.0
2017-Apr-30 03:30N 50°58' E 001°51'0 0.0
2017-Apr-30 03:00N 50°58' E 001°51'0 0.0
2017-Apr-30 02:30N 50°58' E 001°51'0 0.0
2017-Apr-30 02:00N 50°58' E 001°51'0 0.0
2017-Apr-30 01:30N 50°58' E 001°51'0 0.0
2017-Apr-30 01:00N 50°58' E 001°51'0 0.0
2017-Apr-30 00:30N 50°58' E 001°51'0 0.0
2017-Apr-30 00:00N 50°58' E 001°51'0 0.0
2017-Apr-29 23:30N 50°58' E 001°51'0 0.0
2017-Apr-29 23:01N 50°58' E 001°51'0 0.0
2017-Apr-29 22:30N 50°58' E 001°51'0 0.0
2017-Apr-29 22:00N 50°58' E 001°51'0 0.0
2017-Apr-29 21:30N 50°58' E 001°51'0 0.0
2017-Apr-29 21:00N 50°58' E 001°51'0 0.0
2017-Apr-29 20:30N 50°58' E 001°51'0 0.0
2017-Apr-29 20:00N 50°58' E 001°51'0 0.0
2017-Apr-29 19:30N 50°58' E 001°51'714.4
2017-Apr-29 19:01N 50°58' E 001°40'1019.7
2017-Apr-29 18:30N 51°04' E 001°26'510.7
2017-Apr-29 18:00N 51°07' E 001°20'0 0.0
2017-Apr-29 17:30N 51°07' E 001°20'510.8
2017-Apr-29 17:00N 51°06' E 001°28'1019.8
2017-Apr-29 16:30N 51°00' E 001°41'713.5
2017-Apr-29 16:00N 50°58' E 001°51'0 0.0
2017-Apr-29 15:30N 50°58' E 001°51'0 0.4
2017-Apr-29 15:00N 50°58' E 001°51'1019.5
2017-Apr-29 14:30N 50°58' E 001°35'1312.5
2017-Apr-29 13:27N 51°07' E 001°20'0 0.0
2017-Apr-29 13:00N 51°07' E 001°20'4 8.6
2017-Apr-29 12:30N 51°07' E 001°27'1019.5
2017-Apr-29 12:00N 51°01' E 001°39'815.6
2017-Apr-29 11:30N 50°58' E 001°51'0 0.4
2017-Apr-29 11:00N 50°58' E 001°51'1 1.3
2017-Apr-29 10:30N 50°58' E 001°50'817.0
2017-Apr-29 10:01N 51°00' E 001°37'918.5
2017-Apr-29 09:31N 51°06' E 001°25'4 7.3
2017-Apr-29 09:00N 51°07' E 001°20'0 0.0
2017-Apr-29 08:30N 51°07' E 001°20'0 0.7
2017-Apr-29 08:00N 51°07' E 001°21'917.3
2017-Apr-29 07:31N 51°04' E 001°33'917.6
2017-Apr-29 07:00N 50°59' E 001°44'4 8.6
2017-Apr-29 06:30N 50°58' E 001°51'0 0.0
2017-Apr-29 06:00N 50°58' E 001°51'2 4.7
2017-Apr-29 05:31N 50°58' E 001°47'918.5
2017-Apr-29 05:00N 51°01' E 001°33'1019.7
2017-Apr-29 04:30N 51°07' E 001°21'0 0.8
2017-Apr-29 04:00N 51°07' E 001°20'0 0.0
2017-Apr-29 03:30N 51°07' E 001°20'0 0.6
2017-Apr-29 03:00N 51°07' E 001°21'817.1
2017-Apr-29 02:30N 51°07' E 001°34'815.9
2017-Apr-29 02:00N 51°00' E 001°41'713.0
2017-Apr-29 01:30N 50°58' E 001°51'0 0.2
2017-Apr-29 01:01N 50°58' E 001°51'0 0.0
2017-Apr-29 00:30N 50°58' E 001°51'0 0.0
2017-Apr-29 00:01N 50°58' E 001°51'0 0.0
2017-Apr-28 23:31N 50°58' E 001°51'0 0.0
2017-Apr-28 23:00N 50°58' E 001°51'0 0.0
2017-Apr-28 22:30N 50°58' E 001°51'0 0.0
2017-Apr-28 22:00N 50°58' E 001°51'0 0.0
2017-Apr-28 21:30N 50°58' E 001°51'0 0.0
2017-Apr-28 21:01N 50°58' E 001°51'0 0.0
2017-Apr-28 20:30N 50°58' E 001°51'0 0.0
2017-Apr-28 20:00N 50°58' E 001°51'0 0.7
2017-Apr-28 19:31N 50°58' E 001°51'816.1
2017-Apr-28 19:01N 50°59' E 001°38'1019.2
2017-Apr-28 18:31N 51°05' E 001°26'4 8.1
2017-Apr-28 18:00N 51°07' E 001°20'0 0.0
2017-Apr-28 17:30N 51°07' E 001°20'3 6.9
2017-Apr-28 17:00N 51°06' E 001°25'918.2
2017-Apr-28 16:31N 51°01' E 001°37'917.0
2017-Apr-28 16:01N 50°58' E 001°50'1 1.4
2017-Apr-28 15:30N 50°58' E 001°51'0 0.0
2017-Apr-28 15:00N 50°58' E 001°51'1616.1
2017-Apr-28 14:00N 51°04' E 001°27'611.1
2017-Apr-28 13:30N 51°07' E 001°20'0 0.0
2017-Apr-28 13:00N 51°07' E 001°20'4 7.3
2017-Apr-28 12:31N 51°07' E 001°26'918.4
2017-Apr-28 12:01N 51°01' E 001°37'816.3
2017-Apr-28 11:31N 50°58' E 001°50'1 1.9
2017-Apr-28 11:00N 50°58' E 001°51'0 0.0
2017-Apr-28 10:30N 50°58' E 001°51'612.6
2017-Apr-28 10:01N 50°58' E 001°41'1019.7
2017-Apr-28 09:30N 51°04' E 001°29'612.2
2017-Apr-28 09:00N 51°07' E 001°20'0 0.0
2017-Apr-28 08:30N 51°07' E 001°20'0 0.6
2017-Apr-28 08:00N 51°07' E 001°20'816.0
2017-Apr-28 07:31N 51°04' E 001°32'917.4
2017-Apr-28 07:01N 50°59' E 001°43'5 9.9
2017-Apr-28 06:30N 50°58' E 001°51'0 0.0
2017-Apr-28 06:00N 50°58' E 001°51'2 3.1
2017-Apr-28 05:31N 50°58' E 001°49'918.0
2017-Apr-28 05:00N 51°01' E 001°35'1020.2
2017-Apr-28 04:30N 51°07' E 001°22'1 2.3
2017-Apr-28 04:00N 51°07' E 001°20'0 0.0
2017-Apr-28 03:31N 51°07' E 001°20'0 0.1
2017-Apr-28 02:59N 51°07' E 001°20'613.1
2017-Apr-28 02:30N 51°05' E 001°29'917.3
2017-Apr-28 02:00N 51°00' E 001°41'713.1
2017-Apr-28 01:30N 50°58' E 001°51'0 0.4
2017-Apr-28 01:00N 50°58' E 001°51'0 0.0
2017-Apr-28 00:30N 50°58' E 001°51'0 0.0
2017-Apr-28 00:00N 50°58' E 001°51'0 0.0
2017-Apr-27 23:30N 50°58' E 001°51'0 0.0
2017-Apr-27 23:00N 50°58' E 001°51'0 0.0
2017-Apr-27 22:30N 50°58' E 001°51'0 0.0
2017-Apr-27 22:00N 50°58' E 001°51'0 0.0
2017-Apr-27 21:30N 50°58' E 001°51'0 0.0
2017-Apr-27 21:00N 50°58' E 001°51'0 0.0
2017-Apr-27 20:30N 50°58' E 001°51'0 0.0
2017-Apr-27 20:00N 50°58' E 001°51'1 1.6
2017-Apr-27 19:31N 50°58' E 001°50'816.7
2017-Apr-27 19:01N 50°59' E 001°37'1019.7
2017-Apr-27 18:31N 51°05' E 001°24'3 6.8
2017-Apr-27 18:00N 51°07' E 001°20'0 0.0
2017-Apr-27 17:30N 51°07' E 001°20'611.3
2017-Apr-27 17:00N 51°05' E 001°28'918.0
2017-Apr-27 16:30N 51°00' E 001°40'714.0
2017-Apr-27 16:00N 50°58' E 001°51'0 0.0
2017-Apr-27 15:30N 50°58' E 001°51'3 6.1
2017-Apr-27 15:01N 50°58' E 001°46'1918.7
2017-Apr-27 14:01N 51°07' E 001°20'1 1.4
2017-Apr-27 13:30N 51°07' E 001°20'0 0.2
2017-Apr-27 13:00N 51°07' E 001°20'612.6
2017-Apr-27 12:30N 51°05' E 001°29'917.1
2017-Apr-27 12:00N 51°00' E 001°41'714.0
2017-Apr-27 11:30N 50°58' E 001°51'0 0.6
2017-Apr-27 11:00N 50°58' E 001°52'0 0.0
2017-Apr-27 10:30N 50°58' E 001°52'713.5
2017-Apr-27 10:00N 50°59' E 001°41'917.8
2017-Apr-27 09:31N 51°03' E 001°29'713.9
2017-Apr-27 09:00N 51°07' E 001°20'0 0.0
2017-Apr-27 08:31N 51°07' E 001°20'0 0.3
2017-Apr-27 08:00N 51°07' E 001°20'815.3
2017-Apr-27 07:30N 51°04' E 001°31'918.0
2017-Apr-27 07:00N 50°59' E 001°43'510.3
2017-Apr-27 06:30N 50°58' E 001°51'0 0.0
2017-Apr-27 06:00N 50°58' E 001°51'1 2.4
2017-Apr-27 05:31N 50°58' E 001°49'917.6
2017-Apr-27 05:01N 50°60' E 001°35'1019.9
2017-Apr-27 04:30N 51°06' E 001°23'2 4.7
2017-Apr-27 04:00N 51°07' E 001°20'0 0.0
2017-Apr-27 03:30N 51°07' E 001°20'4 8.7
2017-Apr-27 03:00N 51°06' E 001°27'1019.3
2017-Apr-27 02:30N 51°00' E 001°39'815.6
2017-Apr-27 02:01N 50°58' E 001°51'0 0.3
2017-Apr-27 01:30N 50°58' E 001°51'0 0.0
2017-Apr-27 01:00N 50°58' E 001°51'0 0.0
2017-Apr-27 00:30N 50°58' E 001°51'0 0.0
2017-Apr-27 00:00N 50°58' E 001°51'0 0.0
2017-Apr-26 23:30N 50°58' E 001°51'0 0.0
2017-Apr-26 23:00N 50°58' E 001°51'0 0.0
2017-Apr-26 22:30N 50°58' E 001°51'0 0.0
2017-Apr-26 22:00N 50°58' E 001°51'0 0.0
2017-Apr-26 21:30N 50°58' E 001°51'0 0.0
2017-Apr-26 21:00N 50°58' E 001°51'0 0.0
2017-Apr-26 20:30N 50°58' E 001°51'0 0.0
2017-Apr-26 20:00N 50°58' E 001°51'0 0.6
2017-Apr-26 19:30N 50°58' E 001°51'815.5
2017-Apr-26 19:01N 50°59' E 001°39'1019.2
2017-Apr-26 18:31N 51°05' E 001°27'5 9.5
2017-Apr-26 18:00N 51°07' E 001°20'0 0.0
2017-Apr-26 17:30N 51°07' E 001°20'5 9.8
2017-Apr-26 17:01N 51°05' E 001°27'917.6
2017-Apr-26 16:30N 51°00' E 001°38'815.9
2017-Apr-26 16:00N 50°58' E 001°51'0 0.4
2017-Apr-26 15:30N 50°58' E 001°51'0 0.0
2017-Apr-26 15:00N 50°58' E 001°51'612.7
2017-Apr-26 14:30N 50°59' E 001°41'1614.8
2017-Apr-26 13:27N 51°07' E 001°20'0 0.0
2017-Apr-26 12:59N 51°07' E 001°20'3 5.3
2017-Apr-26 12:30N 51°07' E 001°24'918.5
2017-Apr-26 12:00N 51°02' E 001°37'816.8
2017-Apr-26 11:30N 50°58' E 001°49'1 3.0
2017-Apr-26 11:00N 50°58' E 001°51'0 0.0
2017-Apr-26 10:30N 50°58' E 001°51'612.1
2017-Apr-26 10:00N 50°58' E 001°41'1020.4
2017-Apr-26 09:30N 51°04' E 001°28'611.7
2017-Apr-26 09:00N 51°07' E 001°20'0 0.0
2017-Apr-26 08:30N 51°07' E 001°20'2 3.3
2017-Apr-26 08:01N 51°07' E 001°23'1019.2
2017-Apr-26 07:31N 51°02' E 001°36'918.8
2017-Apr-26 07:01N 50°58' E 001°49'1 2.0
2017-Apr-26 06:30N 50°58' E 001°51'0 0.0
2017-Apr-26 06:00N 50°58' E 001°51'3 5.7
2017-Apr-26 05:30N 50°58' E 001°46'917.5
2017-Apr-26 05:01N 51°00' E 001°33'1019.5
2017-Apr-26 04:30N 51°07' E 001°22'1 2.1
2017-Apr-26 04:01N 51°07' E 001°20'0 0.0
2017-Apr-26 03:30N 51°07' E 001°20'0 0.2
2017-Apr-26 03:01N 51°07' E 001°20'714.7
2017-Apr-26 02:31N 51°06' E 001°32'917.7
2017-Apr-26 02:00N 50°60' E 001°42'612.8
2017-Apr-26 01:30N 50°58' E 001°52'0 0.1
2017-Apr-26 01:00N 50°58' E 001°52'0 0.0
2017-Apr-26 00:30N 50°58' E 001°52'0 0.0
2017-Apr-26 00:00N 50°58' E 001°52'0 0.0
2017-Apr-25 23:29N 50°58' E 001°52'0 0.0
2017-Apr-25 23:00N 50°58' E 001°52'0 0.0
2017-Apr-25 22:30N 50°58' E 001°52'0 0.0
2017-Apr-25 22:00N 50°58' E 001°52'0 0.0
2017-Apr-25 21:30N 50°58' E 001°52'0 0.0
2017-Apr-25 21:00N 50°58' E 001°52'0 0.0
2017-Apr-25 20:30N 50°58' E 001°52'0 0.0
2017-Apr-25 20:01N 50°58' E 001°52'2 4.4
2017-Apr-25 19:30N 50°58' E 001°48'917.2
2017-Apr-25 19:01N 51°00' E 001°35'1019.4
2017-Apr-25 18:31N 51°06' E 001°23'2 4.4
2017-Apr-25 18:00N 51°07' E 001°20'0 0.0
2017-Apr-25 17:30N 51°07' E 001°20'613.0
2017-Apr-25 17:00N 51°05' E 001°29'1019.2
2017-Apr-25 16:30N 50°60' E 001°42'612.7
2017-Apr-25 16:00N 50°58' E 001°52'0 0.0
2017-Apr-25 15:30N 50°58' E 001°52'2 4.8
2017-Apr-25 15:01N 50°58' E 001°48'918.4
2017-Apr-25 14:31N 51°02' E 001°34'1110.6
2017-Apr-25 13:30N 51°07' E 001°20'0 0.0
2017-Apr-25 12:59N 51°07' E 001°20'613.5
2017-Apr-25 12:31N 51°05' E 001°30'918.9
2017-Apr-25 12:01N 50°60' E 001°42'611.6
2017-Apr-25 11:30N 50°58' E 001°51'0 0.0
2017-Apr-25 11:00N 50°58' E 001°51'0 0.3
2017-Apr-25 10:30N 50°58' E 001°51'918.4
2017-Apr-25 10:00N 51°00' E 001°37'1020.1
2017-Apr-25 09:30N 51°06' E 001°23'3 5.1
2017-Apr-25 09:00N 51°07' E 001°20'0 0.0
2017-Apr-25 08:30N 51°07' E 001°20'1 1.9
2017-Apr-25 08:00N 51°07' E 001°22'918.0
2017-Apr-25 07:30N 51°03' E 001°34'1019.1
2017-Apr-25 07:00N 50°58' E 001°47'3 5.5
2017-Apr-25 06:30N 50°58' E 001°52'0 0.0
2017-Apr-25 06:00N 50°58' E 001°52'2 4.9
2017-Apr-25 05:31N 50°58' E 001°48'917.7
2017-Apr-25 05:00N 51°01' E 001°34'918.5
2017-Apr-25 04:30N 51°06' E 001°23'2 3.6
2017-Apr-25 04:00N 51°07' E 001°20'0 0.0
2017-Apr-25 03:30N 51°07' E 001°20'0 0.2
2017-Apr-25 03:00N 51°07' E 001°20'815.5
2017-Apr-25 02:30N 51°05' E 001°32'918.6
2017-Apr-25 02:01N 50°59' E 001°43'510.6
2017-Apr-25 01:31N 50°58' E 001°52'0 0.0
2017-Apr-25 01:01N 50°58' E 001°52'0 0.0
2017-Apr-25 00:30N 50°58' E 001°52'0 0.0
2017-Apr-25 00:00N 50°58' E 001°52'0 0.0
2017-Apr-24 23:30N 50°58' E 001°52'0 0.0
2017-Apr-24 23:01N 50°58' E 001°52'0 0.0
2017-Apr-24 22:30N 50°58' E 001°52'0 0.0
2017-Apr-24 22:01N 50°58' E 001°52'0 0.0
2017-Apr-24 21:30N 50°58' E 001°52'0 0.0
2017-Apr-24 21:01N 50°58' E 001°52'0 0.0
2017-Apr-24 20:30N 50°58' E 001°52'0 0.0
2017-Apr-24 20:00N 50°58' E 001°52'1 1.5
2017-Apr-24 19:31N 50°58' E 001°51'918.0
2017-Apr-24 19:00N 50°59' E 001°36'1019.8
2017-Apr-24 18:30N 51°06' E 001°25'3 6.7
2017-Apr-24 18:00N 51°07' E 001°20'0 0.0
2017-Apr-24 17:30N 51°07' E 001°20'611.1
2017-Apr-24 17:00N 51°05' E 001°28'1020.1
2017-Apr-24 16:30N 50°60' E 001°41'612.4
2017-Apr-24 16:00N 50°58' E 001°51'0 0.0
2017-Apr-24 15:30N 50°58' E 001°51'2 3.9
2017-Apr-24 15:00N 50°58' E 001°48'917.6
2017-Apr-24 14:31N 50°60' E 001°34'1211.5
2017-Apr-24 13:30N 51°07' E 001°20'0 0.1
2017-Apr-24 13:00N 51°07' E 001°20'714.2
2017-Apr-24 12:30N 51°05' E 001°30'1019.2
2017-Apr-24 12:00N 50°59' E 001°43'510.4
2017-Apr-24 11:30N 50°58' E 001°51'0 0.0
2017-Apr-24 11:00N 50°58' E 001°51'0 0.0
2017-Apr-24 10:30N 50°58' E 001°51'816.8
2017-Apr-24 10:00N 50°58' E 001°38'1020.6
2017-Apr-24 09:30N 51°04' E 001°24'4 8.2
2017-Apr-24 09:00N 51°07' E 001°20'0 0.0
2017-Apr-24 08:30N 51°07' E 001°20'3 5.2
2017-Apr-24 08:01N 51°07' E 001°24'918.0
2017-Apr-24 07:30N 51°02' E 001°36'918.0
2017-Apr-24 07:00N 50°58' E 001°49'2 3.3
2017-Apr-24 06:30N 50°58' E 001°52'0 0.0
2017-Apr-24 06:00N 50°58' E 001°52'0 0.0
2017-Apr-24 05:30N 50°58' E 001°52'0 0.0
2017-Apr-24 05:00N 50°58' E 001°52'0 0.0
2017-Apr-24 04:30N 50°58' E 001°52'0 0.0
2017-Apr-24 04:00N 50°58' E 001°52'0 0.0
2017-Apr-24 03:30N 50°58' E 001°52'0 0.0
2017-Apr-24 03:00N 50°58' E 001°52'0 0.0
2017-Apr-24 02:30N 50°58' E 001°52'0 0.0
2017-Apr-24 02:00N 50°58' E 001°52'0 0.0
2017-Apr-24 01:30N 50°58' E 001°52'0 0.0
2017-Apr-24 01:00N 50°58' E 001°52'0 0.0
2017-Apr-24 00:30N 50°58' E 001°52'0 0.0
2017-Apr-24 00:00N 50°58' E 001°52'0 0.0
2017-Apr-23 23:30N 50°58' E 001°52'0 0.0
2017-Apr-23 23:00N 50°58' E 001°52'0 0.0
2017-Apr-23 22:30N 50°58' E 001°52'0 0.0
2017-Apr-23 22:00N 50°58' E 001°52'0 0.0
2017-Apr-23 21:30N 50°58' E 001°52'0 0.0
2017-Apr-23 21:00N 50°58' E 001°52'0 0.0
2017-Apr-23 20:30N 50°58' E 001°52'0 0.0
2017-Apr-23 20:00N 50°58' E 001°52'0 0.0
2017-Apr-23 19:30N 50°58' E 001°52'611.7
2017-Apr-23 19:00N 50°58' E 001°42'1019.9
2017-Apr-23 18:30N 51°03' E 001°29'713.6
2017-Apr-23 18:00N 51°07' E 001°20'0 0.0
2017-Apr-23 17:30N 51°07' E 001°20'4 7.1
2017-Apr-23 17:01N 51°06' E 001°26'1020.3
2017-Apr-23 16:31N 51°01' E 001°39'815.7
2017-Apr-23 16:01N 50°58' E 001°51'0 0.3
2017-Apr-23 15:30N 50°58' E 001°51'0 0.6
2017-Apr-23 15:00N 50°58' E 001°51'1515.2
2017-Apr-23 14:00N 51°04' E 001°28'612.4
2017-Apr-23 13:30N 51°07' E 001°20'0 0.0
2017-Apr-23 13:00N 51°07' E 001°20'1 2.1
2017-Apr-23 12:31N 51°07' E 001°22'1019.6
2017-Apr-23 12:01N 51°02' E 001°35'917.6
2017-Apr-23 11:30N 50°58' E 001°48'2 4.3
2017-Apr-23 11:01N 50°58' E 001°51'0 0.0
2017-Apr-23 10:30N 50°58' E 001°51'611.5
2017-Apr-23 10:00N 50°59' E 001°42'1020.9
2017-Apr-23 09:31N 51°04' E 001°28'611.6
2017-Apr-23 09:00N 51°07' E 001°20'0 0.0
2017-Apr-23 08:30N 51°07' E 001°20'3 6.0
2017-Apr-23 08:00N 51°07' E 001°25'1019.7
2017-Apr-23 07:30N 51°01' E 001°38'817.0
2017-Apr-23 07:00N 50°58' E 001°51'0 0.8
2017-Apr-23 06:31N 50°58' E 001°51'3 5.4
2017-Apr-23 06:00N 50°58' E 001°47'919.0
2017-Apr-23 05:30N 51°01' E 001°33'1019.3
2017-Apr-23 05:00N 51°07' E 001°21'0 0.6
2017-Apr-23 04:30N 51°07' E 001°20'3 5.5
2017-Apr-23 04:00N 51°06' E 001°24'1019.8
2017-Apr-23 03:30N 51°01' E 001°38'917.5
2017-Apr-23 03:00N 50°58' E 001°51'0 0.6
2017-Apr-23 02:31N 50°58' E 001°51'1 1.3
2017-Apr-23 02:00N 50°58' E 001°50'918.0
2017-Apr-23 01:30N 50°59' E 001°36'1020.1
2017-Apr-23 01:00N 51°05' E 001°24'3 6.6
2017-Apr-23 00:30N 51°07' E 001°20'0 0.0
2017-Apr-23 00:00N 51°07' E 001°20'0 0.0
2017-Apr-22 23:30N 51°07' E 001°20'0 0.1
2017-Apr-22 23:00N 51°07' E 001°20'5 9.9
2017-Apr-22 22:31N 51°06' E 001°28'1019.8
2017-Apr-22 22:00N 51°00' E 001°40'714.0
2017-Apr-22 21:30N 50°58' E 001°51'0 0.0
2017-Apr-22 21:00N 50°58' E 001°51'1 2.3
2017-Apr-22 20:31N 50°58' E 001°49'817.0
2017-Apr-22 20:01N 50°58' E 001°36'1019.5
2017-Apr-22 19:31N 51°05' E 001°25'4 8.1
2017-Apr-22 19:00N 51°07' E 001°20'0 0.0
2017-Apr-22 18:30N 51°07' E 001°20'0 0.0
2017-Apr-22 18:00N 51°07' E 001°20'0 0.0
2017-Apr-22 17:31N 51°07' E 001°20'611.2
2017-Apr-22 17:01N 51°06' E 001°29'816.5
2017-Apr-22 16:31N 51°01' E 001°39'815.4
2017-Apr-22 16:00N 50°58' E 001°51'0 0.5
2017-Apr-22 15:30N 50°58' E 001°51'1 1.8
2017-Apr-22 15:01N 50°58' E 001°50'817.0
2017-Apr-22 14:31N 50°59' E 001°36'1312.9
2017-Apr-22 13:30N 51°07' E 001°20'0 0.0
2017-Apr-22 13:00N 51°07' E 001°20'4 7.1
2017-Apr-22 12:30N 51°06' E 001°25'1019.6
2017-Apr-22 12:00N 51°01' E 001°39'816.3
2017-Apr-22 11:31N 50°58' E 001°51'0 0.3
2017-Apr-22 11:00N 50°58' E 001°51'0 0.1
2017-Apr-22 10:30N 50°58' E 001°51'815.9
2017-Apr-22 10:01N 50°59' E 001°38'1019.8
2017-Apr-22 09:31N 51°05' E 001°26'5 9.2
2017-Apr-22 09:00N 51°07' E 001°20'0 0.0
2017-Apr-22 08:30N 51°07' E 001°20'0 0.2
2017-Apr-22 08:00N 51°07' E 001°20'816.6
2017-Apr-22 07:30N 51°04' E 001°32'1019.6
2017-Apr-22 07:00N 50°58' E 001°45'4 7.8
2017-Apr-22 06:30N 50°58' E 001°51'0 0.0
2017-Apr-22 06:00N 50°58' E 001°51'4 8.0
2017-Apr-22 05:31N 50°58' E 001°45'816.3
2017-Apr-22 05:00N 51°02' E 001°33'816.6
2017-Apr-22 04:30N 51°07' E 001°22'2 3.3
2017-Apr-22 04:00N 51°07' E 001°20'0 0.0
2017-Apr-22 03:30N 51°07' E 001°20'0 0.0
2017-Apr-22 03:00N 51°07' E 001°20'612.0
2017-Apr-22 02:30N 51°05' E 001°28'815.9
2017-Apr-22 02:00N 51°01' E 001°39'815.1
2017-Apr-22 01:31N 50°58' E 001°50'0 0.9
2017-Apr-22 01:01N 50°58' E 001°51'0 0.0
2017-Apr-22 00:31N 50°58' E 001°51'0 0.0
2017-Apr-22 00:01N 50°58' E 001°51'0 0.0
2017-Apr-21 23:30N 50°58' E 001°51'0 0.0
2017-Apr-21 23:01N 50°58' E 001°51'0 0.0
2017-Apr-21 22:30N 50°58' E 001°51'0 0.0
2017-Apr-21 22:00N 50°58' E 001°51'0 0.0
2017-Apr-21 21:31N 50°58' E 001°51'0 0.0
2017-Apr-21 21:00N 50°58' E 001°51'0 0.0
2017-Apr-21 20:31N 50°58' E 001°51'0 0.0
2017-Apr-21 20:00N 50°58' E 001°51'0 0.0
2017-Apr-21 19:31N 50°58' E 001°51'714.1
2017-Apr-21 19:01N 50°59' E 001°40'918.6
2017-Apr-21 18:31N 51°04' E 001°28'611.4
2017-Apr-21 18:00N 51°07' E 001°20'0 0.0
2017-Apr-21 17:30N 51°07' E 001°20'2 3.9
2017-Apr-21 17:00N 51°07' E 001°23'1020.0
2017-Apr-21 16:30N 51°02' E 001°37'918.4
2017-Apr-21 16:00N 50°58' E 001°50'1 1.1
2017-Apr-21 15:30N 50°58' E 001°51'1 1.6
2017-Apr-21 15:01N 50°58' E 001°50'917.7
2017-Apr-21 14:31N 51°00' E 001°36'1211.8
2017-Apr-21 13:28N 51°07' E 001°20'0 0.0
2017-Apr-21 12:58N 51°07' E 001°20'613.0
2017-Apr-21 12:30N 51°05' E 001°29'1019.8
2017-Apr-21 12:00N 50°59' E 001°42'611.9
2017-Apr-21 11:30N 50°58' E 001°51'0 0.0
2017-Apr-21 11:00N 50°58' E 001°51'3 6.4
2017-Apr-21 10:31N 50°58' E 001°46'1019.1
2017-Apr-21 10:01N 51°02' E 001°32'918.3
2017-Apr-21 09:30N 51°07' E 001°20'0 0.1
2017-Apr-21 09:00N 51°07' E 001°20'0 0.0
2017-Apr-21 08:30N 51°07' E 001°20'0 0.5
2017-Apr-21 07:59N 51°07' E 001°20'816.1
2017-Apr-21 07:31N 51°03' E 001°31'917.6
2017-Apr-21 07:00N 50°59' E 001°43'510.2
2017-Apr-21 06:30N 50°58' E 001°51'0 0.0
2017-Apr-21 06:01N 50°58' E 001°51'2 3.0
2017-Apr-21 05:30N 50°58' E 001°49'919.0
2017-Apr-21 05:00N 50°60' E 001°34'918.3
2017-Apr-21 04:30N 51°06' E 001°23'2 4.8
2017-Apr-21 04:00N 51°07' E 001°20'0 0.0
2017-Apr-21 03:31N 51°07' E 001°20'0 0.1
2017-Apr-21 03:01N 51°07' E 001°20'713.9
2017-Apr-21 02:30N 51°04' E 001°30'815.9
2017-Apr-21 02:00N 51°00' E 001°41'713.1
2017-Apr-21 01:30N 50°58' E 001°51'0 0.4
2017-Apr-21 01:00N 50°58' E 001°51'0 0.0
2017-Apr-21 00:30N 50°58' E 001°51'0 0.0
2017-Apr-21 00:00N 50°58' E 001°51'0 0.0
2017-Apr-20 23:30N 50°58' E 001°51'0 0.0
2017-Apr-20 23:01N 50°58' E 001°51'0 0.0
2017-Apr-20 22:30N 50°58' E 001°51'0 0.0
2017-Apr-20 22:00N 50°58' E 001°51'0 0.0
2017-Apr-20 21:30N 50°58' E 001°51'0 0.0
2017-Apr-20 21:00N 50°58' E 001°51'0 0.0
2017-Apr-20 20:30N 50°58' E 001°51'0 0.0
2017-Apr-20 20:00N 50°58' E 001°51'0 0.4
2017-Apr-20 19:30N 50°58' E 001°51'816.0
2017-Apr-20 19:00N 50°59' E 001°38'917.5
2017-Apr-20 18:30N 51°03' E 001°26'510.7
2017-Apr-20 18:00N 51°07' E 001°20'0 0.0
2017-Apr-20 17:30N 51°07' E 001°20'5 9.4
2017-Apr-20 17:00N 51°06' E 001°27'1019.5
2017-Apr-20 16:30N 51°00' E 001°40'714.5
2017-Apr-20 16:01N 50°58' E 001°51'0 0.2
2017-Apr-20 15:31N 50°58' E 001°51'0 0.0
2017-Apr-20 15:00N 50°58' E 001°51'  

Dump ship's entire track history